sensor_id;sensor_type;location;lat;lon;timestamp;pressure;altitude;pressure_sealevel;temperature;humidity
43147;BME280;28752;48.266;7.402;2023-05-20T00:00:13;99481.38;;;16.20;57.88
43147;BME280;28752;48.266;7.402;2023-05-20T00:02:38;99481.81;;;16.08;57.40
43147;BME280;28752;48.266;7.402;2023-05-20T00:05:03;99480.38;;;16.21;56.96
43147;BME280;28752;48.266;7.402;2023-05-20T00:07:29;99482.03;;;16.22;57.39
43147;BME280;28752;48.266;7.402;2023-05-20T00:09:54;99482.59;;;16.17;57.29
43147;BME280;28752;48.266;7.402;2023-05-20T00:12:20;99487.75;;;16.19;56.33
43147;BME280;28752;48.266;7.402;2023-05-20T00:14:45;99482.75;;;15.92;57.96
43147;BME280;28752;48.266;7.402;2023-05-20T00:17:10;99491.63;;;15.93;58.61
43147;BME280;28752;48.266;7.402;2023-05-20T00:19:36;99490.66;;;16.09;58.54
43147;BME280;28752;48.266;7.402;2023-05-20T00:22:01;99494.94;;;15.95;57.80
43147;BME280;28752;48.266;7.402;2023-05-20T00:24:27;99481.31;;;16.05;57.72
43147;BME280;28752;48.266;7.402;2023-05-20T00:26:52;99479.78;;;16.10;57.17
43147;BME280;28752;48.266;7.402;2023-05-20T00:29:19;99480.88;;;16.01;56.87
43147;BME280;28752;48.266;7.402;2023-05-20T00:31:45;99475.59;;;15.93;55.06
43147;BME280;28752;48.266;7.402;2023-05-20T00:34:10;99483.97;;;15.90;54.79
43147;BME280;28752;48.266;7.402;2023-05-20T00:36:35;99470.28;;;15.93;53.91
43147;BME280;28752;48.266;7.402;2023-05-20T00:39:01;99476.53;;;16.00;53.73
43147;BME280;28752;48.266;7.402;2023-05-20T00:41:26;99477.00;;;16.04;54.01
43147;BME280;28752;48.266;7.402;2023-05-20T00:43:53;99481.69;;;16.02;53.57
43147;BME280;28752;48.266;7.402;2023-05-20T00:46:19;99474.34;;;16.04;53.50
43147;BME280;28752;48.266;7.402;2023-05-20T00:48:44;99472.94;;;15.93;53.82
43147;BME280;28752;48.266;7.402;2023-05-20T00:51:13;99479.34;;;15.84;52.60
43147;BME280;28752;48.266;7.402;2023-05-20T00:53:39;99479.81;;;15.87;52.71
43147;BME280;28752;48.266;7.402;2023-05-20T00:56:06;99461.91;;;15.96;52.24
43147;BME280;28752;48.266;7.402;2023-05-20T00:58:32;99464.75;;;15.94;51.96
43147;BME280;28752;48.266;7.402;2023-05-20T01:00:58;99458.31;;;16.04;51.83
43147;BME280;28752;48.266;7.402;2023-05-20T01:03:24;99459.94;;;15.90;51.92
43147;BME280;28752;48.266;7.402;2023-05-20T01:05:49;99466.75;;;15.92;52.07
43147;BME280;28752;48.266;7.402;2023-05-20T01:08:14;99456.19;;;15.99;51.83
43147;BME280;28752;48.266;7.402;2023-05-20T01:10:44;99455.97;;;15.86;51.96
43147;BME280;28752;48.266;7.402;2023-05-20T01:13:14;99458.19;;;15.97;52.13
43147;BME280;28752;48.266;7.402;2023-05-20T01:15:44;99450.28;;;15.89;51.98
43147;BME280;28752;48.266;7.402;2023-05-20T01:18:13;99455.53;;;15.97;52.16
43147;BME280;28752;48.266;7.402;2023-05-20T01:20:43;99451.84;;;15.98;52.31
43147;BME280;28752;48.266;7.402;2023-05-20T01:23:10;99454.81;;;16.03;52.18
43147;BME280;28752;48.266;7.402;2023-05-20T01:25:35;99448.09;;;16.07;52.34
43147;BME280;28752;48.266;7.402;2023-05-20T01:28:00;99443.25;;;15.88;52.16
43147;BME280;28752;48.266;7.402;2023-05-20T01:30:29;99450.28;;;15.89;52.46
43147;BME280;28752;48.266;7.402;2023-05-20T01:33:01;99453.72;;;15.97;52.40
43147;BME280;28752;48.266;7.402;2023-05-20T01:35:29;99452.75;;;15.90;52.38
43147;BME280;28752;48.266;7.402;2023-05-20T01:37:56;99451.84;;;15.98;51.99
43147;BME280;28752;48.266;7.402;2023-05-20T01:40:23;99453.94;;;15.88;52.24
43147;BME280;28752;48.266;7.402;2023-05-20T01:42:50;99452.56;;;15.92;52.41
43147;BME280;28752;48.266;7.402;2023-05-20T01:45:19;99450.84;;;15.99;52.29
43147;BME280;28752;48.266;7.402;2023-05-20T01:47:45;99444.16;;;15.80;52.49
43147;BME280;28752;48.266;7.402;2023-05-20T01:50:10;99439.22;;;15.92;52.43
43147;BME280;28752;48.266;7.402;2023-05-20T01:52:36;99442.91;;;15.91;52.69
43147;BME280;28752;48.266;7.402;2023-05-20T01:55:01;99447.88;;;15.94;52.69
43147;BME280;28752;48.266;7.402;2023-05-20T01:57:26;99436.66;;;15.75;53.04
43147;BME280;28752;48.266;7.402;2023-05-20T01:59:52;99432.84;;;15.78;52.95
43147;BME280;28752;48.266;7.402;2023-05-20T02:02:17;99436.47;;;15.77;52.97
43147;BME280;28752;48.266;7.402;2023-05-20T02:04:45;99434.44;;;15.87;52.89
43147;BME280;28752;48.266;7.402;2023-05-20T02:07:14;99432.41;;;15.89;52.96
43147;BME280;28752;48.266;7.402;2023-05-20T02:09:39;99426.63;;;16.01;52.70
43147;BME280;28752;48.266;7.402;2023-05-20T02:12:06;99420.72;;;15.90;52.75
43147;BME280;28752;48.266;7.402;2023-05-20T02:14:31;99429.91;;;15.88;52.97
43147;BME280;28752;48.266;7.402;2023-05-20T02:16:57;99421.13;;;15.79;53.05
43147;BME280;28752;48.266;7.402;2023-05-20T02:19:22;99425.34;;;15.73;53.25
43147;BME280;28752;48.266;7.402;2023-05-20T02:21:48;99429.28;;;15.86;53.23
43147;BME280;28752;48.266;7.402;2023-05-20T02:24:15;99418.16;;;15.74;53.47
43147;BME280;28752;48.266;7.402;2023-05-20T02:26:41;99417.66;;;15.78;53.53
43147;BME280;28752;48.266;7.402;2023-05-20T02:29:06;99414.97;;;15.78;53.49
43147;BME280;28752;48.266;7.402;2023-05-20T02:31:32;99420.06;;;15.65;53.91
43147;BME280;28752;48.266;7.402;2023-05-20T02:33:57;99415.03;;;15.70;53.96
43147;BME280;28752;48.266;7.402;2023-05-20T02:36:22;99411.13;;;15.73;54.26
43147;BME280;28752;48.266;7.402;2023-05-20T02:38:48;99416.47;;;15.73;54.31
43147;BME280;28752;48.266;7.402;2023-05-20T02:41:13;99415.03;;;15.70;54.17
43147;BME280;28752;48.266;7.402;2023-05-20T02:43:38;99405.63;;;15.74;54.41
43147;BME280;28752;48.266;7.402;2023-05-20T02:46:05;99413.28;;;15.54;54.72
43147;BME280;28752;48.266;7.402;2023-05-20T02:48:30;99414.59;;;15.58;54.69
43147;BME280;28752;48.266;7.402;2023-05-20T02:50:57;99413.34;;;15.69;54.75
43147;BME280;28752;48.266;7.402;2023-05-20T02:53:22;99419.41;;;15.63;54.90
43147;BME280;28752;48.266;7.402;2023-05-20T02:55:48;99416.69;;;15.48;55.38
43147;BME280;28752;48.266;7.402;2023-05-20T02:58:14;99417.09;;;15.60;55.09
43147;BME280;28752;48.266;7.402;2023-05-20T03:00:39;99410.09;;;15.59;55.18
43147;BME280;28752;48.266;7.402;2023-05-20T03:03:08;99409.44;;;15.57;55.74
43147;BME280;28752;48.266;7.402;2023-05-20T03:05:34;99403.28;;;15.56;55.70
43147;BME280;28752;48.266;7.402;2023-05-20T03:08:06;99403.13;;;15.58;55.67
43147;BME280;28752;48.266;7.402;2023-05-20T03:10:33;99401.16;;;15.52;55.81
43147;BME280;28752;48.266;7.402;2023-05-20T03:12:59;99396.38;;;15.62;55.59
43147;BME280;28752;48.266;7.402;2023-05-20T03:15:24;99396.97;;;15.72;55.44
43147;BME280;28752;48.266;7.402;2023-05-20T03:17:50;99398.34;;;15.68;56.03
43147;BME280;28752;48.266;7.402;2023-05-20T03:20:16;99388.88;;;15.66;55.94
43147;BME280;28752;48.266;7.402;2023-05-20T03:22:41;99406.25;;;15.61;56.27
43147;BME280;28752;48.266;7.402;2023-05-20T03:25:07;99404.81;;;15.74;56.14
43147;BME280;28752;48.266;7.402;2023-05-20T03:27:33;99404.41;;;15.62;56.38
43147;BME280;28752;48.266;7.402;2023-05-20T03:30:01;99396.88;;;15.66;56.54
43147;BME280;28752;48.266;7.402;2023-05-20T03:32:26;99396.03;;;15.65;56.90
43147;BME280;28752;48.266;7.402;2023-05-20T03:34:52;99387.19;;;15.64;57.16
43147;BME280;28752;48.266;7.402;2023-05-20T03:37:18;99396.88;;;15.66;57.13
43147;BME280;28752;48.266;7.402;2023-05-20T03:39:43;99392.63;;;15.56;57.46
43147;BME280;28752;48.266;7.402;2023-05-20T03:42:09;99395.56;;;15.61;57.73
43147;BME280;28752;48.266;7.402;2023-05-20T03:44:34;99394.63;;;15.77;57.42
43147;BME280;28752;48.266;7.402;2023-05-20T03:47:00;99392.72;;;15.63;57.61
43147;BME280;28752;48.266;7.402;2023-05-20T03:49:25;99389.22;;;15.62;57.87
43147;BME280;28752;48.266;7.402;2023-05-20T03:51:50;99395.09;;;15.58;58.00
43147;BME280;28752;48.266;7.402;2023-05-20T03:54:16;99386.25;;;15.57;58.29
43147;BME280;28752;48.266;7.402;2023-05-20T03:56:41;99391.13;;;15.54;58.67
43147;BME280;28752;48.266;7.402;2023-05-20T03:59:07;99392.72;;;15.63;58.79
43147;BME280;28752;48.266;7.402;2023-05-20T04:01:32;99390.53;;;15.43;59.16
43147;BME280;28752;48.266;7.402;2023-05-20T04:03:58;99393.84;;;15.45;59.38
43147;BME280;28752;48.266;7.402;2023-05-20T04:06:23;99386.91;;;15.59;59.18
43147;BME280;28752;48.266;7.402;2023-05-20T04:08:48;99393.97;;;15.52;59.11
43147;BME280;28752;48.266;7.402;2023-05-20T04:11:14;99395.81;;;15.52;59.03
43147;BME280;28752;48.266;7.402;2023-05-20T04:13:39;99396.88;;;15.66;59.08
43147;BME280;28752;48.266;7.402;2023-05-20T04:16:05;99391.66;;;15.49;59.32
43147;BME280;28752;48.266;7.402;2023-05-20T04:18:30;99384.78;;;15.55;59.39
43147;BME280;28752;48.266;7.402;2023-05-20T04:20:56;99402.53;;;15.48;59.55
43147;BME280;28752;48.266;7.402;2023-05-20T04:23:21;99389.78;;;15.58;59.14
43147;BME280;28752;48.266;7.402;2023-05-20T04:25:47;99384.06;;;15.61;59.19
43147;BME280;28752;48.266;7.402;2023-05-20T04:28:13;99382.03;;;15.63;59.39
43147;BME280;28752;48.266;7.402;2023-05-20T04:30:40;99384.06;;;15.61;59.36
43147;BME280;28752;48.266;7.402;2023-05-20T04:33:07;99384.91;;;15.61;59.17
43147;BME280;28752;48.266;7.402;2023-05-20T04:35:32;99381.75;;;15.35;60.04
43147;BME280;28752;48.266;7.402;2023-05-20T04:37:59;99376.41;;;15.35;59.93
43147;BME280;28752;48.266;7.402;2023-05-20T04:40:25;99373.53;;;15.44;59.74
43147;BME280;28752;48.266;7.402;2023-05-20T04:42:51;99364.38;;;15.39;60.28
43147;BME280;28752;48.266;7.402;2023-05-20T04:45:16;99361.19;;;15.20;60.22
43147;BME280;28752;48.266;7.402;2023-05-20T04:47:42;99371.97;;;15.27;60.49
43147;BME280;28752;48.266;7.402;2023-05-20T04:50:09;99367.66;;;15.26;60.65
43147;BME280;28752;48.266;7.402;2023-05-20T04:52:36;99369.91;;;15.37;60.06
43147;BME280;28752;48.266;7.402;2023-05-20T04:55:02;99371.22;;;15.41;60.29
43147;BME280;28752;48.266;7.402;2023-05-20T04:57:27;99373.44;;;15.53;59.92
43147;BME280;28752;48.266;7.402;2023-05-20T04:59:53;99364.56;;;15.37;60.63
43147;BME280;28752;48.266;7.402;2023-05-20T05:02:23;99358.16;;;15.46;60.45
43147;BME280;28752;48.266;7.402;2023-05-20T05:04:48;99357.44;;;15.53;60.50
43147;BME280;28752;48.266;7.402;2023-05-20T05:07:13;99372.81;;;15.51;60.75
43147;BME280;28752;48.266;7.402;2023-05-20T05:09:39;99379.50;;;15.46;60.73
43147;BME280;28752;48.266;7.402;2023-05-20T05:12:05;99373.72;;;15.43;60.75
43147;BME280;28752;48.266;7.402;2023-05-20T05:14:30;99386.50;;;15.48;60.53
43147;BME280;28752;48.266;7.402;2023-05-20T05:16:55;99370.25;;;15.34;60.96
43147;BME280;28752;48.266;7.402;2023-05-20T05:19:21;99377.28;;;15.35;61.20
43147;BME280;28752;48.266;7.402;2023-05-20T05:21:46;99380.66;;;15.29;61.03
43147;BME280;28752;48.266;7.402;2023-05-20T05:24:12;99390.97;;;15.32;61.02
43147;BME280;28752;48.266;7.402;2023-05-20T05:26:37;99386.38;;;15.41;60.83
43147;BME280;28752;48.266;7.402;2023-05-20T05:29:03;99380.41;;;15.16;61.34
43147;BME280;28752;48.266;7.402;2023-05-20T05:31:28;99385.75;;;15.07;61.56
43147;BME280;28752;48.266;7.402;2023-05-20T05:33:53;99398.22;;;15.15;61.24
43147;BME280;28752;48.266;7.402;2023-05-20T05:36:19;99397.09;;;15.09;61.64
43147;BME280;28752;48.266;7.402;2023-05-20T05:38:44;99389.22;;;15.16;61.50
43147;BME280;28752;48.266;7.402;2023-05-20T05:41:10;99386.72;;;15.38;61.02
43147;BME280;28752;48.266;7.402;2023-05-20T05:43:35;99388.59;;;15.37;61.16
43147;BME280;28752;48.266;7.402;2023-05-20T05:46:00;99390.19;;;15.46;61.14
43147;BME280;28752;48.266;7.402;2023-05-20T05:48:26;99392.03;;;15.46;61.08
43147;BME280;28752;48.266;7.402;2023-05-20T05:50:51;99397.38;;;15.46;61.08
43147;BME280;28752;48.266;7.402;2023-05-20T05:53:17;99390.66;;;15.50;61.29
43147;BME280;28752;48.266;7.402;2023-05-20T05:55:42;99388.56;;;15.60;60.87
43147;BME280;28752;48.266;7.402;2023-05-20T05:58:09;99390.53;;;15.43;61.37
43147;BME280;28752;48.266;7.402;2023-05-20T06:00:35;99385.00;;;15.68;60.90
43147;BME280;28752;48.266;7.402;2023-05-20T06:03:00;99384.88;;;15.85;60.19
43147;BME280;28752;48.266;7.402;2023-05-20T06:05:25;99373.25;;;15.77;60.42
43147;BME280;28752;48.266;7.402;2023-05-20T06:07:51;99382.41;;;15.83;60.08
43147;BME280;28752;48.266;7.402;2023-05-20T06:10:16;99375.56;;;15.57;60.53
43147;BME280;28752;48.266;7.402;2023-05-20T06:12:41;99368.44;;;15.73;60.68
43147;BME280;28752;48.266;7.402;2023-05-20T06:15:07;99372.25;;;15.78;60.87
43147;BME280;28752;48.266;7.402;2023-05-20T06:17:33;99364.91;;;15.80;60.54
43147;BME280;28752;48.266;7.402;2023-05-20T06:19:58;99370.56;;;16.01;59.89
43147;BME280;28752;48.266;7.402;2023-05-20T06:22:24;99363.09;;;16.11;60.26
43147;BME280;28752;48.266;7.402;2023-05-20T06:24:49;99365.31;;;16.22;59.49
43147;BME280;28752;48.266;7.402;2023-05-20T06:27:15;99366.66;;;16.03;60.16
43147;BME280;28752;48.266;7.402;2023-05-20T06:29:40;99370.38;;;16.32;59.48
43147;BME280;28752;48.266;7.402;2023-05-20T06:32:06;99370.56;;;16.45;59.22
43147;BME280;28752;48.266;7.402;2023-05-20T06:34:31;99361.41;;;16.69;58.66
43147;BME280;28752;48.266;7.402;2023-05-20T06:36:57;99374.06;;;16.31;59.14
43147;BME280;28752;48.266;7.402;2023-05-20T06:39:23;99375.44;;;16.57;58.75
43147;BME280;28752;48.266;7.402;2023-05-20T06:41:48;99371.28;;;16.69;58.60
43147;BME280;28752;48.266;7.402;2023-05-20T06:44:16;99371.31;;;17.05;58.29
43147;BME280;28752;48.266;7.402;2023-05-20T06:46:41;99378.97;;;17.30;57.42
43147;BME280;28752;48.266;7.402;2023-05-20T06:49:07;99368.25;;;17.30;57.37
43147;BME280;28752;48.266;7.402;2023-05-20T06:51:32;99369.03;;;17.67;56.15
43147;BME280;28752;48.266;7.402;2023-05-20T06:53:57;99364.22;;;17.84;55.51
43147;BME280;28752;48.266;7.402;2023-05-20T06:56:23;99371.78;;;17.52;56.18
43147;BME280;28752;48.266;7.402;2023-05-20T06:58:48;99363.22;;;17.64;56.10
43147;BME280;28752;48.266;7.402;2023-05-20T07:01:13;99360.69;;;18.05;55.17
43147;BME280;28752;48.266;7.402;2023-05-20T07:03:39;99362.44;;;18.68;52.83
43147;BME280;28752;48.266;7.402;2023-05-20T07:06:04;99364.22;;;20.50;48.98
43147;BME280;28752;48.266;7.402;2023-05-20T07:08:30;99356.25;;;22.58;44.75
43147;BME280;28752;48.266;7.402;2023-05-20T07:10:55;99362.00;;;23.11;43.46
43147;BME280;28752;48.266;7.402;2023-05-20T07:13:21;99350.94;;;23.31;41.84
43147;BME280;28752;48.266;7.402;2023-05-20T07:15:48;99351.63;;;23.38;41.97
43147;BME280;28752;48.266;7.402;2023-05-20T07:18:14;99359.34;;;22.43;43.97
43147;BME280;28752;48.266;7.402;2023-05-20T07:20:40;99347.06;;;23.50;41.97
43147;BME280;28752;48.266;7.402;2023-05-20T07:23:05;99339.38;;;23.66;41.06
43147;BME280;28752;48.266;7.402;2023-05-20T07:25:31;99340.38;;;24.88;39.28
43147;BME280;28752;48.266;7.402;2023-05-20T07:27:56;99331.75;;;24.62;39.58
43147;BME280;28752;48.266;7.402;2023-05-20T07:30:21;99324.66;;;25.48;38.77
43147;BME280;28752;48.266;7.402;2023-05-20T07:32:47;99333.88;;;24.48;39.13
43147;BME280;28752;48.266;7.402;2023-05-20T07:35:12;99330.66;;;25.33;38.57
43147;BME280;28752;48.266;7.402;2023-05-20T07:37:37;99342.00;;;24.60;39.70
43147;BME280;28752;48.266;7.402;2023-05-20T07:40:03;99340.47;;;24.53;39.70
43147;BME280;28752;48.266;7.402;2023-05-20T07:42:29;99332.25;;;24.59;39.86
43147;BME280;28752;48.266;7.402;2023-05-20T07:44:54;99332.78;;;23.85;40.26
43147;BME280;28752;48.266;7.402;2023-05-20T07:47:20;99326.72;;;24.42;40.42
43147;BME280;28752;48.266;7.402;2023-05-20T07:49:45;99317.59;;;25.47;38.88
43147;BME280;28752;48.266;7.402;2023-05-20T07:52:11;99320.94;;;25.37;38.72
43147;BME280;28752;48.266;7.402;2023-05-20T07:54:36;99316.41;;;24.80;40.23
43147;BME280;28752;48.266;7.402;2023-05-20T07:57:01;99315.97;;;24.19;40.34
43147;BME280;28752;48.266;7.402;2023-05-20T07:59:27;99308.84;;;24.82;39.99
43147;BME280;28752;48.266;7.402;2023-05-20T08:01:52;99314.28;;;23.35;42.33
43147;BME280;28752;48.266;7.402;2023-05-20T08:04:18;99302.00;;;22.11;45.52
43147;BME280;28752;48.266;7.402;2023-05-20T08:06:43;99307.19;;;22.31;45.48
43147;BME280;28752;48.266;7.402;2023-05-20T08:09:09;99301.78;;;22.12;45.07
43147;BME280;28752;48.266;7.402;2023-05-20T08:11:34;99296.69;;;22.41;45.46
43147;BME280;28752;48.266;7.402;2023-05-20T08:14:00;99294.09;;;22.95;43.89
43147;BME280;28752;48.266;7.402;2023-05-20T08:16:26;99296.03;;;23.18;43.79
43147;BME280;28752;48.266;7.402;2023-05-20T08:18:52;99291.72;;;22.87;44.11
43147;BME280;28752;48.266;7.402;2023-05-20T08:21:17;99289.47;;;22.16;45.57
43147;BME280;28752;48.266;7.402;2023-05-20T08:23:42;99288.06;;;22.14;45.60
43147;BME280;28752;48.266;7.402;2023-05-20T08:26:08;99281.03;;;21.94;46.41
43147;BME280;28752;48.266;7.402;2023-05-20T08:28:34;99283.19;;;21.86;46.66
43147;BME280;28752;48.266;7.402;2023-05-20T08:31:01;99281.84;;;21.51;48.05
43147;BME280;28752;48.266;7.402;2023-05-20T08:33:26;99281.94;;;21.88;47.89
43147;BME280;28752;48.266;7.402;2023-05-20T08:35:51;99301.00;;;20.72;48.73
43147;BME280;28752;48.266;7.402;2023-05-20T08:38:17;99289.50;;;20.52;50.04
43147;BME280;28752;48.266;7.402;2023-05-20T08:40:42;99294.09;;;20.45;50.08
43147;BME280;28752;48.266;7.402;2023-05-20T08:43:08;99300.56;;;20.30;50.73
43147;BME280;28752;48.266;7.402;2023-05-20T08:45:36;99313.25;;;20.62;50.08
43147;BME280;28752;48.266;7.402;2023-05-20T08:48:02;99302.75;;;20.53;50.14
43147;BME280;28752;48.266;7.402;2023-05-20T08:50:29;99308.19;;;20.85;49.70
43147;BME280;28752;48.266;7.402;2023-05-20T08:52:55;99301.00;;;21.36;49.99
43147;BME280;28752;48.266;7.402;2023-05-20T08:55:25;99303.81;;;20.91;49.34
43147;BME280;28752;48.266;7.402;2023-05-20T08:57:53;99308.41;;;20.84;49.37
43147;BME280;28752;48.266;7.402;2023-05-20T09:00:23;99303.41;;;21.51;50.14
43147;BME280;28752;48.266;7.402;2023-05-20T09:02:53;99299.19;;;21.05;48.98
43147;BME280;28752;48.266;7.402;2023-05-20T09:05:19;99292.84;;;21.50;49.02
43147;BME280;28752;48.266;7.402;2023-05-20T09:07:45;99290.69;;;22.02;48.34
43147;BME280;28752;48.266;7.402;2023-05-20T09:10:11;99295.78;;;21.41;48.69
43147;BME280;28752;48.266;7.402;2023-05-20T09:12:36;99290.00;;;21.70;49.25
43147;BME280;28752;48.266;7.402;2023-05-20T09:15:05;99300.78;;;21.70;48.94
43147;BME280;28752;48.266;7.402;2023-05-20T09:17:34;99284.97;;;21.92;48.28
43147;BME280;28752;48.266;7.402;2023-05-20T09:19:59;99298.81;;;21.77;48.94
43147;BME280;28752;48.266;7.402;2023-05-20T09:22:28;99295.94;;;21.53;49.34
43147;BME280;28752;48.266;7.402;2023-05-20T09:24:54;99285.38;;;22.14;48.23
43147;BME280;28752;48.266;7.402;2023-05-20T09:27:20;99280.78;;;21.27;48.97
43147;BME280;28752;48.266;7.402;2023-05-20T09:29:49;99284.34;;;21.46;48.70
43147;BME280;28752;48.266;7.402;2023-05-20T09:32:15;99282.78;;;21.38;48.75
43147;BME280;28752;48.266;7.402;2023-05-20T09:34:41;99279.19;;;21.44;48.40
43147;BME280;28752;48.266;7.402;2023-05-20T09:37:08;99273.66;;;21.83;48.80
43147;BME280;28752;48.266;7.402;2023-05-20T09:39:45;99269.78;;;22.16;47.73
43147;BME280;28752;48.266;7.402;2023-05-20T09:42:19;99268.50;;;22.56;46.81
43147;BME280;28752;48.266;7.402;2023-05-20T09:44:47;99268.94;;;21.97;47.55
43147;BME280;28752;48.266;7.402;2023-05-20T09:47:15;99255.34;;;21.73;48.26
43147;BME280;28752;48.266;7.402;2023-05-20T09:49:42;99273.94;;;21.56;48.98
43147;BME280;28752;48.266;7.402;2023-05-20T09:52:11;99268.84;;;21.67;48.65
43147;BME280;28752;48.266;7.402;2023-05-20T09:54:38;99268.63;;;21.68;49.30
43147;BME280;28752;48.266;7.402;2023-05-20T09:57:03;99264.75;;;21.14;49.84
43147;BME280;28752;48.266;7.402;2023-05-20T09:59:31;99271.06;;;21.26;49.55
43147;BME280;28752;48.266;7.402;2023-05-20T10:01:56;99275.34;;;21.34;49.58
43147;BME280;28752;48.266;7.402;2023-05-20T10:04:22;99265.44;;;21.96;48.49
43147;BME280;28752;48.266;7.402;2023-05-20T10:14:54;99254.88;;;22.13;47.48
43147;BME280;28752;48.266;7.402;2023-05-20T10:17:36;99257.03;;;21.86;48.14
43147;BME280;28752;48.266;7.402;2023-05-20T10:20:06;99254.75;;;21.90;48.33
43147;BME280;28752;48.266;7.402;2023-05-20T10:22:33;99254.06;;;21.76;48.35
43147;BME280;28752;48.266;7.402;2023-05-20T10:25:00;99258.41;;;21.95;48.22
43147;BME280;28752;48.266;7.402;2023-05-20T10:27:44;99253.28;;;21.50;48.37
43147;BME280;28752;48.266;7.402;2023-05-20T10:30:18;99259.81;;;21.79;48.06
43147;BME280;28752;48.266;7.402;2023-05-20T10:32:54;99245.91;;;21.82;47.75
43147;BME280;28752;48.266;7.402;2023-05-20T10:35:25;99250.84;;;21.86;47.64
43147;BME280;28752;48.266;7.402;2023-05-20T10:37:52;99245.38;;;21.92;49.20
43147;BME280;28752;48.266;7.402;2023-05-20T10:40:20;99242.25;;;22.32;47.65
43147;BME280;28752;48.266;7.402;2023-05-20T10:42:46;99241.56;;;22.37;47.00
43147;BME280;28752;48.266;7.402;2023-05-20T10:45:23;99234.66;;;22.41;47.82
43147;BME280;28752;48.266;7.402;2023-05-20T10:47:56;99238.19;;;22.23;48.54
43147;BME280;28752;48.266;7.402;2023-05-20T10:50:34;99220.50;;;22.09;48.13
43147;BME280;28752;48.266;7.402;2023-05-20T10:53:04;99237.81;;;21.64;48.74
43147;BME280;28752;48.266;7.402;2023-05-20T10:55:37;99223.31;;;21.83;48.50
43147;BME280;28752;48.266;7.402;2023-05-20T10:58:04;99230.63;;;21.33;49.43
43147;BME280;28752;48.266;7.402;2023-05-20T11:00:30;99233.09;;;21.34;50.15
43147;BME280;28752;48.266;7.402;2023-05-20T11:02:56;99225.19;;;21.39;50.23
43147;BME280;28752;48.266;7.402;2023-05-20T11:05:21;99229.78;;;21.32;49.48
43147;BME280;28752;48.266;7.402;2023-05-20T11:07:47;99221.81;;;21.44;49.38
43147;BME280;28752;48.266;7.402;2023-05-20T11:10:12;99216.34;;;21.94;48.93
43147;BME280;28752;48.266;7.402;2023-05-20T11:12:38;99219.41;;;22.35;48.59
43147;BME280;28752;48.266;7.402;2023-05-20T11:15:04;99229.25;;;22.71;47.61
43147;BME280;28752;48.266;7.402;2023-05-20T11:17:29;99219.06;;;22.74;46.64
43147;BME280;28752;48.266;7.402;2023-05-20T11:19:55;99227.09;;;22.62;47.84
43147;BME280;28752;48.266;7.402;2023-05-20T11:22:21;99215.84;;;22.34;48.01
43147;BME280;28752;48.266;7.402;2023-05-20T11:24:46;99213.66;;;22.43;48.03
43147;BME280;28752;48.266;7.402;2023-05-20T11:27:12;99210.09;;;22.31;47.80
43147;BME280;28752;48.266;7.402;2023-05-20T11:29:38;99210.97;;;22.43;48.95
43147;BME280;28752;48.266;7.402;2023-05-20T11:32:06;99212.94;;;22.17;48.68
43147;BME280;28752;48.266;7.402;2023-05-20T11:34:35;99220.63;;;21.83;48.04
43147;BME280;28752;48.266;7.402;2023-05-20T11:37:01;99210.72;;;21.96;48.13
43147;BME280;28752;48.266;7.402;2023-05-20T11:39:29;99212.59;;;22.14;47.51
43147;BME280;28752;48.266;7.402;2023-05-20T11:41:55;99190.63;;;22.71;47.03
43147;BME280;28752;48.266;7.402;2023-05-20T11:44:21;99199.69;;;22.16;47.59
43147;BME280;28752;48.266;7.402;2023-05-20T11:46:47;99195.72;;;22.37;48.26
43147;BME280;28752;48.266;7.402;2023-05-20T11:49:13;99192.38;;;22.05;47.93
43147;BME280;28752;48.266;7.402;2023-05-20T11:51:39;99186.69;;;21.94;47.84
43147;BME280;28752;48.266;7.402;2023-05-20T11:54:06;99189.88;;;22.22;48.22
43147;BME280;28752;48.266;7.402;2023-05-20T11:56:33;99187.34;;;22.08;48.06
43147;BME280;28752;48.266;7.402;2023-05-20T11:59:01;99189.53;;;22.30;48.25
43147;BME280;28752;48.266;7.402;2023-05-20T12:01:37;99192.94;;;22.25;47.85
43147;BME280;28752;48.266;7.402;2023-05-20T12:04:07;99190.09;;;22.20;48.01
43147;BME280;28752;48.266;7.402;2023-05-20T12:06:33;99180.97;;;22.51;47.74
43147;BME280;28752;48.266;7.402;2023-05-20T12:09:01;99166.09;;;23.27;46.90
43147;BME280;28752;48.266;7.402;2023-05-20T12:11:36;99169.38;;;23.40;46.70
43147;BME280;28752;48.266;7.402;2023-05-20T12:14:03;99166.09;;;23.38;45.78
43147;BME280;28752;48.266;7.402;2023-05-20T12:16:30;99166.66;;;24.05;45.61
43147;BME280;28752;48.266;7.402;2023-05-20T12:18:55;99164.34;;;23.97;44.30
43147;BME280;28752;48.266;7.402;2023-05-20T12:21:21;99164.41;;;23.61;45.77
43147;BME280;28752;48.266;7.402;2023-05-20T12:23:46;99167.00;;;23.44;45.59
43147;BME280;28752;48.266;7.402;2023-05-20T12:26:11;99166.41;;;23.66;45.67
43147;BME280;28752;48.266;7.402;2023-05-20T12:28:37;99157.22;;;23.55;45.33
43147;BME280;28752;48.266;7.402;2023-05-20T12:31:02;99156.78;;;23.58;46.11
43147;BME280;28752;48.266;7.402;2023-05-20T12:33:27;99161.09;;;23.71;45.54
43147;BME280;28752;48.266;7.402;2023-05-20T12:35:53;99146.81;;;23.23;46.49
43147;BME280;28752;48.266;7.402;2023-05-20T12:38:18;99139.41;;;22.95;46.51
43147;BME280;28752;48.266;7.402;2023-05-20T12:40:43;99135.34;;;23.16;45.86
43147;BME280;28752;48.266;7.402;2023-05-20T12:43:09;99141.63;;;22.98;45.69
43147;BME280;28752;48.266;7.402;2023-05-20T12:45:34;99130.81;;;23.45;46.26
43147;BME280;28752;48.266;7.402;2023-05-20T12:48:00;99126.22;;;23.57;46.04
43147;BME280;28752;48.266;7.402;2023-05-20T12:50:26;99122.97;;;23.32;45.43
43147;BME280;28752;48.266;7.402;2023-05-20T12:52:51;99135.66;;;23.84;46.30
43147;BME280;28752;48.266;7.402;2023-05-20T12:55:17;99124.28;;;23.17;45.45
43147;BME280;28752;48.266;7.402;2023-05-20T12:57:43;99119.44;;;23.43;45.89
43147;BME280;28752;48.266;7.402;2023-05-20T13:00:09;99121.81;;;23.28;45.59
43147;BME280;28752;48.266;7.402;2023-05-20T13:02:38;99126.59;;;23.61;46.01